sensor_id;sensor_type;location;lat;lon;timestamp;pressure;altitude;pressure_sealevel;temperature;humidity
45403;BME280;47427;51.976;5.326;2023-02-13T00:01:19;103727.94;;;7.23;100.00
45403;BME280;47427;51.976;5.326;2023-02-13T00:04:45;103734.31;;;7.26;100.00
45403;BME280;47427;51.976;5.326;2023-02-13T00:08:20;103731.59;;;7.25;100.00
45403;BME280;47427;51.976;5.326;2023-02-13T00:11:49;103725.47;;;7.24;100.00
45403;BME280;47427;51.976;5.326;2023-02-13T00:15:19;103727.94;;;7.23;100.00
45403;BME280;47427;51.976;5.326;2023-02-13T00:19:02;103723.50;;;7.22;100.00
45403;BME280;47427;51.976;5.326;2023-02-13T00:22:38;103719.69;;;7.18;100.00
45403;BME280;47427;51.976;5.326;2023-02-13T00:26:03;103706.78;;;7.20;100.00
45403;BME280;47427;51.976;5.326;2023-02-13T00:29:38;103707.44;;;7.17;100.00
45403;BME280;47427;51.976;5.326;2023-02-13T00:32:59;103708.09;;;7.14;100.00
45403;BME280;47427;51.976;5.326;2023-02-13T00:36:22;103709.00;;;7.15;100.00
45403;BME280;47427;51.976;5.326;2023-02-13T00:39:46;103709.66;;;7.12;100.00
45403;BME280;47427;51.976;5.326;2023-02-13T00:43:12;103706.38;;;7.15;100.00
45403;BME280;47427;51.976;5.326;2023-02-13T00:46:56;103706.88;;;7.11;100.00
45403;BME280;47427;51.976;5.326;2023-02-13T00:50:30;103707.78;;;7.11;100.00
45403;BME280;47427;51.976;5.326;2023-02-13T00:53:59;103702.88;;;7.14;100.00
45403;BME280;47427;51.976;5.326;2023-02-13T00:57:23;103706.25;;;7.13;100.00
45403;BME280;47427;51.976;5.326;2023-02-13T01:01:00;103711.34;;;7.12;100.00
45403;BME280;47427;51.976;5.326;2023-02-13T01:04:31;103704.41;;;7.12;100.00
45403;BME280;47427;51.976;5.326;2023-02-13T01:07:58;103703.63;;;7.13;100.00
45403;BME280;47427;51.976;5.326;2023-02-13T01:11:39;103709.66;;;7.12;100.00
45403;BME280;47427;51.976;5.326;2023-02-13T01:15:18;103718.38;;;7.13;100.00
45403;BME280;47427;51.976;5.326;2023-02-13T01:18:51;103702.56;;;7.11;100.00
45403;BME280;47427;51.976;5.326;2023-02-13T01:22:24;103715.63;;;7.11;100.00
45403;BME280;47427;51.976;5.326;2023-02-13T01:25:49;103694.75;;;7.11;100.00
45403;BME280;47427;51.976;5.326;2023-02-13T01:29:13;103683.94;;;7.07;100.00
45403;BME280;47427;51.976;5.326;2023-02-13T01:32:51;103687.44;;;7.07;100.00
45403;BME280;47427;51.976;5.326;2023-02-13T01:36:34;103695.69;;;7.12;100.00
45403;BME280;47427;51.976;5.326;2023-02-13T01:40:20;103699.84;;;7.10;100.00
45403;BME280;47427;51.976;5.326;2023-02-13T01:44:00;103690.31;;;7.10;100.00
45403;BME280;47427;51.976;5.326;2023-02-13T01:47:55;103691.88;;;7.08;100.00
45403;BME280;47427;51.976;5.326;2023-02-13T01:51:33;103679.63;;;7.07;100.00
45403;BME280;47427;51.976;5.326;2023-02-13T01:55:01;103686.66;;;7.08;100.00
45403;BME280;47427;51.976;5.326;2023-02-13T02:02:29;103678.72;;;7.07;100.00
45403;BME280;47427;51.976;5.326;2023-02-13T02:05:57;103677.75;;;7.06;100.00
45403;BME280;47427;51.976;5.326;2023-02-13T02:09:34;103684.03;;;7.08;100.00
45403;BME280;47427;51.976;5.326;2023-02-13T02:13:16;103674.41;;;7.07;100.00
45403;BME280;47427;51.976;5.326;2023-02-13T02:17:02;103674.00;;;7.03;100.00
45403;BME280;47427;51.976;5.326;2023-02-13T02:25:03;103686.91;;;7.01;100.00
45403;BME280;47427;51.976;5.326;2023-02-13T02:41:07;103670.88;;;7.07;100.00
45403;BME280;47427;51.976;5.326;2023-02-13T02:49:14;103679.72;;;7.09;100.00
45403;BME280;47427;51.976;5.326;2023-02-13T02:53:43;103673.50;;;7.07;100.00
45403;BME280;47427;51.976;5.326;2023-02-13T02:57:40;103669.56;;;7.02;100.00
45403;BME280;47427;51.976;5.326;2023-02-13T03:01:27;103670.09;;;7.08;100.00
45403;BME280;47427;51.976;5.326;2023-02-13T03:05:21;103669.94;;;7.06;100.00
45403;BME280;47427;51.976;5.326;2023-02-13T03:09:16;103664.34;;;7.02;100.00
45403;BME280;47427;51.976;5.326;2023-02-13T03:13:28;103667.59;;;6.99;100.00
45403;BME280;47427;51.976;5.326;2023-02-13T03:17:02;103678.31;;;7.02;100.00
45403;BME280;47427;51.976;5.326;2023-02-13T03:20:54;103670.72;;;7.05;100.00
45403;BME280;47427;51.976;5.326;2023-02-13T03:25:17;103676.75;;;7.04;100.00
45403;BME280;47427;51.976;5.326;2023-02-13T03:33:57;103672.03;;;7.00;100.00
45403;BME280;47427;51.976;5.326;2023-02-13T03:37:52;103671.13;;;7.00;100.00
45403;BME280;47427;51.976;5.326;2023-02-13T03:41:27;103674.66;;;7.00;100.00
45403;BME280;47427;51.976;5.326;2023-02-13T03:44:58;103675.44;;;6.99;100.00
45403;BME280;47427;51.976;5.326;2023-02-13T03:48:43;103678.31;;;7.02;100.00
45403;BME280;47427;51.976;5.326;2023-02-13T03:52:42;103676.34;;;7.00;100.00
45403;BME280;47427;51.976;5.326;2023-02-13T03:56:08;103666.81;;;7.00;100.00
45403;BME280;47427;51.976;5.326;2023-02-13T03:59:50;103675.44;;;6.99;100.00
45403;BME280;47427;51.976;5.326;2023-02-13T04:04:10;103673.59;;;6.98;100.00
45403;BME280;47427;51.976;5.326;2023-02-13T04:07:47;103668.91;;;6.94;100.00
45403;BME280;47427;51.976;5.326;2023-02-13T04:14:55;103679.59;;;6.97;100.00
45403;BME280;47427;51.976;5.326;2023-02-13T04:18:29;103671.53;;;6.94;100.00
45403;BME280;47427;51.976;5.326;2023-02-13T04:22:16;103664.19;;;6.90;100.00
45403;BME280;47427;51.976;5.326;2023-02-13T04:25:51;103667.72;;;6.90;100.00
45403;BME280;47427;51.976;5.326;2023-02-13T04:29:23;103661.72;;;6.91;100.00
45403;BME280;47427;51.976;5.326;2023-02-13T04:32:52;103658.31;;;6.92;100.00
45403;BME280;47427;51.976;5.326;2023-02-13T04:36:13;103664.44;;;6.93;100.00
45403;BME280;47427;51.976;5.326;2023-02-13T04:39:37;103661.09;;;6.94;100.00
45403;BME280;47427;51.976;5.326;2023-02-13T04:43:15;103659.13;;;6.91;100.00
45403;BME280;47427;51.976;5.326;2023-02-13T04:46:56;103658.06;;;6.89;100.00
45403;BME280;47427;51.976;5.326;2023-02-13T04:50:19;103669.03;;;6.95;100.00
45403;BME280;47427;51.976;5.326;2023-02-13T04:53:45;103659.22;;;6.93;100.00
45403;BME280;47427;51.976;5.326;2023-02-13T04:57:17;103653.34;;;6.95;100.00
45403;BME280;47427;51.976;5.326;2023-02-13T05:00:50;103641.75;;;6.92;100.00
45403;BME280;47427;51.976;5.326;2023-02-13T05:04:21;103642.53;;;6.91;100.00
45403;BME280;47427;51.976;5.326;2023-02-13T05:07:58;103640.31;;;6.85;100.00
45403;BME280;47427;51.976;5.326;2023-02-13T05:11:28;103637.28;;;6.81;100.00
45403;BME280;47427;51.976;5.326;2023-02-13T05:15:08;103633.91;;;6.82;100.00
45403;BME280;47427;51.976;5.326;2023-02-13T05:19:27;103629.22;;;6.78;100.00
45403;BME280;47427;51.976;5.326;2023-02-13T05:23:08;103629.59;;;6.82;100.00
45403;BME280;47427;51.976;5.326;2023-02-13T05:26:51;103622.44;;;6.80;100.00
45403;BME280;47427;51.976;5.326;2023-02-13T05:30:16;103623.47;;;6.82;100.00
45403;BME280;47427;51.976;5.326;2023-02-13T05:33:40;103627.16;;;6.84;100.00
45403;BME280;47427;51.976;5.326;2023-02-13T05:37:09;103628.81;;;6.83;100.00
45403;BME280;47427;51.976;5.326;2023-02-13T05:40:57;103634.31;;;6.86;100.00
45403;BME280;47427;51.976;5.326;2023-02-13T05:44:34;103627.41;;;6.87;100.00
45403;BME280;47427;51.976;5.326;2023-02-13T05:48:09;103634.44;;;6.88;100.00
45403;BME280;47427;51.976;5.326;2023-02-13T05:51:33;103632.88;;;6.90;100.00
45403;BME280;47427;51.976;5.326;2023-02-13T05:55:07;103630.78;;;6.86;100.00
45403;BME280;47427;51.976;5.326;2023-02-13T05:58:30;103632.22;;;6.82;100.00
45403;BME280;47427;51.976;5.326;2023-02-13T06:01:56;103630.97;;;6.48;100.00
45403;BME280;47427;51.976;5.326;2023-02-13T06:05:31;103602.44;;;5.81;100.00
45403;BME280;47427;51.976;5.326;2023-02-13T06:09:00;103637.78;;;5.69;100.00
45403;BME280;47427;51.976;5.326;2023-02-13T06:12:34;103642.16;;;5.40;100.00
45403;BME280;47427;51.976;5.326;2023-02-13T06:16:18;103629.47;;;5.16;100.00
45403;BME280;47427;51.976;5.326;2023-02-13T06:20:08;103633.44;;;4.93;100.00
45403;BME280;47427;51.976;5.326;2023-02-13T06:23:38;103645.78;;;4.77;100.00
45403;BME280;47427;51.976;5.326;2023-02-13T06:27:20;103637.88;;;4.67;100.00
45403;BME280;47427;51.976;5.326;2023-02-13T06:30:49;103650.19;;;4.50;100.00
45403;BME280;47427;51.976;5.326;2023-02-13T06:34:10;103638.63;;;4.38;100.00
45403;BME280;47427;51.976;5.326;2023-02-13T06:37:46;103645.06;;;4.33;100.00
45403;BME280;47427;51.976;5.326;2023-02-13T06:41:32;103647.06;;;4.27;100.00
45403;BME280;47427;51.976;5.326;2023-02-13T06:45:04;103654.28;;;4.21;100.00
45403;BME280;47427;51.976;5.326;2023-02-13T06:48:35;103653.66;;;4.15;100.00
45403;BME280;47427;51.976;5.326;2023-02-13T06:52:04;103644.81;;;4.04;100.00
45403;BME280;47427;51.976;5.326;2023-02-13T06:55:26;103640.72;;;3.97;100.00
45403;BME280;47427;51.976;5.326;2023-02-13T06:58:52;103648.69;;;3.90;100.00
45403;BME280;47427;51.976;5.326;2023-02-13T07:02:25;103654.63;;;3.89;100.00
45403;BME280;47427;51.976;5.326;2023-02-13T07:05:51;103652.81;;;3.88;100.00
45403;BME280;47427;51.976;5.326;2023-02-13T07:09:15;103658.63;;;3.85;100.00
45403;BME280;47427;51.976;5.326;2023-02-13T07:12:43;103659.69;;;3.87;100.00
45403;BME280;47427;51.976;5.326;2023-02-13T07:16:06;103663.81;;;3.85;100.00
45403;BME280;47427;51.976;5.326;2023-02-13T07:19:27;103659.38;;;3.93;100.00
45403;BME280;47427;51.976;5.326;2023-02-13T07:22:56;103657.84;;;3.95;100.00
45403;BME280;47427;51.976;5.326;2023-02-13T07:26:20;103650.31;;;4.07;100.00
45403;BME280;47427;51.976;5.326;2023-02-13T07:29:45;103653.22;;;4.19;100.00
45403;BME280;47427;51.976;5.326;2023-02-13T07:33:13;103659.44;;;4.29;100.00
45403;BME280;47427;51.976;5.326;2023-02-13T07:36:42;103652.78;;;4.50;100.00
45403;BME280;47427;51.976;5.326;2023-02-13T07:40:09;103657.19;;;4.88;100.00
45403;BME280;47427;51.976;5.326;2023-02-13T07:43:39;103666.59;;;5.32;100.00
45403;BME280;47427;51.976;5.326;2023-02-13T07:47:01;103663.19;;;6.09;100.00
45403;BME280;47427;51.976;5.326;2023-02-13T07:50:45;103663.81;;;7.16;100.00
45403;BME280;47427;51.976;5.326;2023-02-13T07:54:09;103667.00;;;7.85;100.00
45403;BME280;47427;51.976;5.326;2023-02-13T07:57:33;103669.03;;;7.99;100.00
45403;BME280;47427;51.976;5.326;2023-02-13T08:00:56;103676.88;;;7.99;100.00
45403;BME280;47427;51.976;5.326;2023-02-13T08:04:18;103676.34;;;8.68;100.00
45403;BME280;47427;51.976;5.326;2023-02-13T08:07:42;103685.91;;;9.81;100.00
45403;BME280;47427;51.976;5.326;2023-02-13T08:15:58;103686.06;;;10.66;100.00
45403;BME280;47427;51.976;5.326;2023-02-13T08:19:37;103696.72;;;10.32;100.00
45403;BME280;47427;51.976;5.326;2023-02-13T08:23:08;103697.84;;;10.48;100.00
45403;BME280;47427;51.976;5.326;2023-02-13T08:26:39;103698.16;;;10.64;100.00
45403;BME280;47427;51.976;5.326;2023-02-13T08:30:13;103702.22;;;10.84;100.00
45403;BME280;47427;51.976;5.326;2023-02-13T08:33:40;103701.16;;;11.70;99.04
45403;BME280;47427;51.976;5.326;2023-02-13T08:37:27;103691.09;;;12.71;93.99
45403;BME280;47427;51.976;5.326;2023-02-13T08:41:07;103686.63;;;13.86;90.82
45403;BME280;47427;51.976;5.326;2023-02-13T08:44:35;103695.56;;;14.19;83.63
45403;BME280;47427;51.976;5.326;2023-02-13T08:48:10;103693.97;;;14.85;81.83
45403;BME280;47427;51.976;5.326;2023-02-13T08:51:34;103688.06;;;15.74;80.78
45403;BME280;47427;51.976;5.326;2023-02-13T08:54:58;103689.41;;;16.00;76.36
45403;BME280;47427;51.976;5.326;2023-02-13T08:58:23;103700.06;;;15.50;73.46
45403;BME280;47427;51.976;5.326;2023-02-13T09:02:04;103690.91;;;15.61;73.74
45403;BME280;47427;51.976;5.326;2023-02-13T09:05:30;103694.91;;;15.53;74.07
45403;BME280;47427;51.976;5.326;2023-02-13T09:09:12;103685.81;;;16.18;70.19
45403;BME280;47427;51.976;5.326;2023-02-13T09:12:54;103694.72;;;15.15;73.22
45403;BME280;47427;51.976;5.326;2023-02-13T09:16:24;103699.66;;;14.45;76.52
45403;BME280;47427;51.976;5.326;2023-02-13T09:19:56;103699.81;;;15.29;73.89
45403;BME280;47427;51.976;5.326;2023-02-13T09:23:20;103696.72;;;14.87;75.36
45403;BME280;47427;51.976;5.326;2023-02-13T09:26:45;103692.25;;;14.38;75.64
45403;BME280;47427;51.976;5.326;2023-02-13T09:30:14;103697.34;;;13.89;78.37
45403;BME280;47427;51.976;5.326;2023-02-13T09:34:03;103689.38;;;15.48;76.04
45403;BME280;47427;51.976;5.326;2023-02-13T09:37:32;103692.72;;;16.14;71.69
45403;BME280;47427;51.976;5.326;2023-02-13T09:41:08;103698.19;;;16.92;66.22
45403;BME280;47427;51.976;5.326;2023-02-13T09:44:38;103697.19;;;17.90;56.07
45403;BME280;47427;51.976;5.326;2023-02-13T09:48:29;103697.06;;;17.47;56.23
45403;BME280;47427;51.976;5.326;2023-02-13T09:51:59;103686.63;;;16.72;56.86
45403;BME280;47427;51.976;5.326;2023-02-13T09:59:49;103690.50;;;18.90;49.83
45403;BME280;47427;51.976;5.326;2023-02-13T10:11:16;103685.97;;;21.03;47.22
45403;BME280;47427;51.976;5.326;2023-02-13T10:15:30;103679.47;;;21.58;44.54
45403;BME280;47427;51.976;5.326;2023-02-13T10:19:27;103675.53;;;22.17;42.78
45403;BME280;47427;51.976;5.326;2023-02-13T10:23:34;103671.34;;;22.26;41.75
45403;BME280;47427;51.976;5.326;2023-02-13T10:27:42;103668.28;;;22.11;40.88
45403;BME280;47427;51.976;5.326;2023-02-13T10:31:28;103669.06;;;22.43;41.03
45403;BME280;47427;51.976;5.326;2023-02-13T10:34:52;103666.22;;;22.37;41.97
45403;BME280;47427;51.976;5.326;2023-02-13T10:38:21;103660.72;;;23.14;41.37
45403;BME280;47427;51.976;5.326;2023-02-13T10:42:12;103658.97;;;23.68;39.81
45403;BME280;47427;51.976;5.326;2023-02-13T10:50:00;103661.22;;;23.44;38.96
45403;BME280;47427;51.976;5.326;2023-02-13T10:57:24;103657.09;;;23.64;37.17
45403;BME280;47427;51.976;5.326;2023-02-13T11:05:19;103650.72;;;23.06;36.94
45403;BME280;47427;51.976;5.326;2023-02-13T11:08:46;103649.34;;;22.40;39.72
45403;BME280;47427;51.976;5.326;2023-02-13T11:12:32;103649.81;;;21.48;39.52
45403;BME280;47427;51.976;5.326;2023-02-13T11:16:14;103650.69;;;21.15;42.00
45403;BME280;47427;51.976;5.326;2023-02-13T11:19:55;103644.38;;;20.80;42.44
45403;BME280;47427;51.976;5.326;2023-02-13T11:23:50;103631.88;;;19.38;44.80
45403;BME280;47427;51.976;5.326;2023-02-13T11:27:25;103634.66;;;19.41;45.86
45403;BME280;47427;51.976;5.326;2023-02-13T11:30:51;103630.81;;;19.08;46.98
45403;BME280;47427;51.976;5.326;2023-02-13T11:34:27;103619.50;;;17.33;49.61
45403;BME280;47427;51.976;5.326;2023-02-13T11:38:19;103623.59;;;17.25;49.58
45403;BME280;47427;51.976;5.326;2023-02-13T11:42:02;103608.53;;;16.27;52.34
45403;BME280;47427;51.976;5.326;2023-02-13T11:45:34;103614.97;;;16.51;52.91
45403;BME280;47427;51.976;5.326;2023-02-13T11:49:24;103616.41;;;17.22;51.38
45403;BME280;47427;51.976;5.326;2023-02-13T11:53:13;103605.78;;;18.08;50.12
45403;BME280;47427;51.976;5.326;2023-02-13T11:57:16;103602.91;;;17.60;49.13
45403;BME280;47427;51.976;5.326;2023-02-13T12:04:30;103599.34;;;20.60;45.16
45403;BME280;47427;51.976;5.326;2023-02-13T12:08:07;103584.28;;;22.01;42.42
45403;BME280;47427;51.976;5.326;2023-02-13T12:11:52;103593.53;;;23.04;40.21
45403;BME280;47427;51.976;5.326;2023-02-13T12:15:40;103583.75;;;23.59;36.32
45403;BME280;47427;51.976;5.326;2023-02-13T12:19:16;103576.47;;;24.10;36.68
45403;BME280;47427;51.976;5.326;2023-02-13T12:27:23;103582.34;;;23.81;35.95
45403;BME280;47427;51.976;5.326;2023-02-13T12:31:13;103578.44;;;24.23;35.50
45403;BME280;47427;51.976;5.326;2023-02-13T12:47:09;103567.16;;;25.39;35.14
45403;BME280;47427;51.976;5.326;2023-02-13T12:50:54;103567.63;;;24.92;33.49
45403;BME280;47427;51.976;5.326;2023-02-13T13:12:06;103545.72;;;23.85;34.62
45403;BME280;47427;51.976;5.326;2023-02-13T13:25:04;103521.66;;;25.72;33.42
45403;BME280;47427;51.976;5.326;2023-02-13T13:28:55;103516.53;;;26.20;33.16
45403;BME280;47427;51.976;5.326;2023-02-13T13:32:34;103510.28;;;26.38;32.52
45403;BME280;47427;51.976;5.326;2023-02-13T13:36:43;103493.34;;;26.59;30.89
45403;BME280;47427;51.976;5.326;2023-02-13T13:40:36;103497.44;;;25.66;32.57
45403;BME280;47427;51.976;5.326;2023-02-13T13:44:52;103487.72;;;25.88;31.95
45403;BME280;47427;51.976;5.326;2023-02-13T13:48:49;103491.16;;;25.66;31.92
45403;BME280;47427;51.976;5.326;2023-02-13T13:52:39;103488.44;;;25.61;31.93
45403;BME280;47427;51.976;5.326;2023-02-13T14:15:52;103486.53;;;24.41;35.47
45403;BME280;47427;51.976;5.326;2023-02-13T14:19:37;103482.91;;;24.37;34.16
45403;BME280;47427;51.976;5.326;2023-02-13T14:24:08;103477.03;;;23.94;35.18
45403;BME280;47427;51.976;5.326;2023-02-13T14:27:25;103464.78;;;24.16;34.78
45403;BME280;47427;51.976;5.326;2023-02-13T14:31:07;103470.84;;;23.98;35.26
45403;BME280;47427;51.976;5.326;2023-02-13T14:34:37;103460.84;;;23.87;35.63
45403;BME280;47427;51.976;5.326;2023-02-13T14:38:05;103449.78;;;23.61;35.40
45403;BME280;47427;51.976;5.326;2023-02-13T14:45:35;103451.81;;;22.64;36.33
45403;BME280;47427;51.976;5.326;2023-02-13T14:49:20;103450.44;;;22.38;36.40
45403;BME280;47427;51.976;5.326;2023-02-13T14:52:47;103441.41;;;22.31;37.00
45403;BME280;47427;51.976;5.326;2023-02-13T14:56:18;103436.94;;;21.47;38.71
45403;BME280;47427;51.976;5.326;2023-02-13T14:59:56;103444.69;;;21.74;38.18
45403;BME280;47427;51.976;5.326;2023-02-13T15:03:40;103444.22;;;21.14;39.34
45403;BME280;47427;51.976;5.326;2023-02-13T15:11:04;103441.59;;;21.17;40.14
45403;BME280;47427;51.976;5.326;2023-02-13T15:14:46;103441.84;;;20.55;41.15
45403;BME280;47427;51.976;5.326;2023-02-13T15:18:18;103441.56;;;20.46;40.49
45403;BME280;47427;51.976;5.326;2023-02-13T15:22:01;103443.25;;;19.51;42.58
45403;BME280;47427;51.976;5.326;2023-02-13T15:25:38;103438.47;;;19.99;42.93
45403;BME280;47427;51.976;5.326;2023-02-13T15:29:19;103440.69;;;20.47;42.62
45403;BME280;47427;51.976;5.326;2023-02-13T15:32:43;103434.25;;;19.76;43.00
45403;BME280;47427;51.976;5.326;2023-02-13T15:36:39;103438.66;;;17.45;46.84
45403;BME280;47427;51.976;5.326;2023-02-13T15:40:22;103432.09;;;16.11;50.87
45403;BME280;47427;51.976;5.326;2023-02-13T15:43:55;103436.22;;;15.67;52.94
45403;BME280;47427;51.976;5.326;2023-02-13T15:47:31;103418.94;;;15.00;54.33
45403;BME280;47427;51.976;5.326;2023-02-13T15:50:54;103425.94;;;14.64;56.74
45403;BME280;47427;51.976;5.326;2023-02-13T15:58:14;103425.19;;;13.83;60.35
45403;BME280;47427;51.976;5.326;2023-02-13T16:01:42;103430.75;;;13.56;61.11
45403;BME280;47427;51.976;5.326;2023-02-13T16:05:21;103421.22;;;13.27;62.30
45403;BME280;47427;51.976;5.326;2023-02-13T16:09:02;103419.16;;;13.07;63.62
45403;BME280;47427;51.976;5.326;2023-02-13T16:12:43;103421.72;;;12.75;65.11
45403;BME280;47427;51.976;5.326;2023-02-13T16:16:08;103423.81;;;12.81;66.35
45403;BME280;47427;51.976;5.326;2023-02-13T16:23:59;103420.47;;;12.39;67.36
45403;BME280;47427;51.976;5.326;2023-02-13T16:31:34;103429.81;;;11.91;70.41
45403;BME280;47427;51.976;5.326;2023-02-13T16:35:30;103427.09;;;11.76;72.17
45403;BME280;47427;51.976;5.326;2023-02-13T16:39:14;103424.22;;;11.58;72.97
45403;BME280;47427;51.976;5.326;2023-02-13T16:42:37;103425.75;;;11.41;74.46
45403;BME280;47427;51.976;5.326;2023-02-13T16:46:34;103425.41;;;11.22;75.26
45403;BME280;47427;51.976;5.326;2023-02-13T16:50:14;103427.31;;;11.11;76.29
45403;BME280;47427;51.976;5.326;2023-02-13T16:53:56;103420.56;;;10.88;77.76
45403;BME280;47427;51.976;5.326;2023-02-13T16:57:42;103429.34;;;10.75;79.15
45403;BME280;47427;51.976;5.326;2023-02-13T17:01:19;103427.59;;;10.62;80.06
45403;BME280;47427;51.976;5.326;2023-02-13T17:08:36;103443.22;;;10.48;81.09
45403;BME280;47427;51.976;5.326;2023-02-13T17:11:59;103449.78;;;10.41;81.46
45403;BME280;47427;51.976;5.326;2023-02-13T17:15:27;103450.03;;;10.32;81.88
45403;BME280;47427;51.976;5.326;2023-02-13T17:18:51;103456.44;;;10.24;82.34
45403;BME280;47427;51.976;5.326;2023-02-13T17:22:26;103454.69;;;10.11;82.82
45403;BME280;47427;51.976;5.326;2023-02-13T17:26:03;103455.34;;;9.95;83.49
45403;BME280;47427;51.976;5.326;2023-02-13T17:29:27;103456.25;;;9.84;84.74
45403;BME280;47427;51.976;5.326;2023-02-13T17:36:42;103455.78;;;9.53;85.83
45403;BME280;47427;51.976;5.326;2023-02-13T17:40:19;103455.47;;;9.37;86.61
45403;BME280;47427;51.976;5.326;2023-02-13T17:43:42;103456.41;;;9.25;87.13
45403;BME280;47427;51.976;5.326;2023-02-13T17:47:03;103454.13;;;9.18;87.77
45403;BME280;47427;51.976;5.326;2023-02-13T17:50:28;103444.31;;;9.04;88.56
45403;BME280;47427;51.976;5.326;2023-02-13T17:54:11;103458.78;;;8.99;88.80
45403;BME280;47427;51.976;5.326;2023-02-13T17:57:34;103460.97;;;8.93;89.65
45403;BME280;47427;51.976;5.326;2023-02-13T18:00:57;103449.00;;;8.84;89.82
45403;BME280;47427;51.976;5.326;2023-02-13T18:04:26;103448.22;;;8.74;90.40
45403;BME280;47427;51.976;5.326;2023-02-13T18:07:49;103457.28;;;8.67;90.67
45403;BME280;47427;51.976;5.326;2023-02-13T18:11:11;103451.34;;;8.58;91.60
45403;BME280;47427;51.976;5.326;2023-02-13T18:14:53;103456.34;;;8.55;92.37
45403;BME280;47427;51.976;5.326;2023-02-13T18:18:15;103445.44;;;8.49;92.68
45403;BME280;47427;51.976;5.326;2023-02-13T18:21:37;103452.78;;;8.42;93.43
45403;BME280;47427;51.976;5.326;2023-02-13T18:25:06;103454.00;;;8.36;93.92
45403;BME280;47427;51.976;5.326;2023-02-13T18:28:29;103454.50;;;8.20;93.64
45403;BME280;47427;51.976;5.326;2023-02-13T18:31:51;103452.41;;;8.04;94.38
45403;BME280;47427;51.976;5.326;2023-02-13T18:35:13;103456.56;;;7.90;95.06
45403;BME280;47427;51.976;5.326;2023-02-13T18:38:37;103453.88;;;7.78;95.54
45403;BME280;47427;51.976;5.326;2023-02-13T18:42:05;103452.13;;;7.67;95.93
45403;BME280;47427;51.976;5.326;2023-02-13T18:45:27;103440.97;;;7.48;96.18
45403;BME280;47427;51.976;5.326;2023-02-13T18:48:54;103447.63;;;7.44;96.29
45403;BME280;47427;51.976;5.326;2023-02-13T18:52:19;103448.72;;;7.36;96.87
45403;BME280;47427;51.976;5.326;2023-02-13T18:55:47;103458.94;;;7.33;98.19
45403;BME280;47427;51.976;5.326;2023-02-13T18:59:10;103452.00;;;7.33;98.33
45403;BME280;47427;51.976;5.326;2023-02-13T19:02:33;103446.41;;;7.29;98.77
45403;BME280;47427;51.976;5.326;2023-02-13T19:05:55;103459.22;;;7.26;99.40
45403;BME280;47427;51.976;5.326;2023-02-13T19:09:20;103451.66;;;7.19;100.00
45403;BME280;47427;51.976;5.326;2023-02-13T19:12:50;103446.06;;;7.14;100.00
45403;BME280;47427;51.976;5.326;2023-02-13T19:16:17;103447.13;;;7.06;100.00
45403;BME280;47427;51.976;5.326;2023-02-13T19:19:44;103452.63;;;6.99;100.00
45403;BME280;47427;51.976;5.326;2023-02-13T19:23:11;103444.31;;;6.92;100.00
45403;BME280;47427;51.976;5.326;2023-02-13T19:26:33;103437.94;;;6.89;100.00
45403;BME280;47427;51.976;5.326;2023-02-13T19:29:54;103437.31;;;6.81;100.00
45403;BME280;47427;51.976;5.326;2023-02-13T19:33:16;103438.47;;;6.75;100.00
45403;BME280;47427;51.976;5.326;2023-02-13T19:36:39;103437.03;;;6.78;100.00
45403;BME280;47427;51.976;5.326;2023-02-13T19:40:07;103441.34;;;6.78;100.00
45403;BME280;47427;51.976;5.326;2023-02-13T19:43:33;103433.91;;;6.72;100.00
45403;BME280;47427;51.976;5.326;2023-02-13T19:46:55;103436.66;;;6.73;100.00
45403;BME280;47427;51.976;5.326;2023-02-13T19:50:18;103437.69;;;6.76;100.00
45403;BME280;47427;51.976;5.326;2023-02-13T19:53:44;103440.03;;;6.72;100.00
45403;BME280;47427;51.976;5.326;2023-02-13T19:57:05;103434.03;;;6.63;100.00
45403;BME280;47427;51.976;5.326;2023-02-13T20:00:28;103442.66;;;6.62;100.00
45403;BME280;47427;51.976;5.326;2023-02-13T20:03:53;103431.59;;;6.55;100.00
45403;BME280;47427;51.976;5.326;2023-02-13T20:07:18;103430.03;;;6.57;100.00
45403;BME280;47427;51.976;5.326;2023-02-13T20:10:45;103438.78;;;6.47;100.00
45403;BME280;47427;51.976;5.326;2023-02-13T20:14:11;103444.38;;;6.41;100.00
45403;BME280;47427;51.976;5.326;2023-02-13T20:17:38;103429.91;;;6.35;100.00
45403;BME280;47427;51.976;5.326;2023-02-13T20:21:13;103436.44;;;6.29;100.00
45403;BME280;47427;51.976;5.326;2023-02-13T20:24:36;103429.91;;;6.24;100.00
45403;BME280;47427;51.976;5.326;2023-02-13T20:27:59;103432.75;;;6.17;100.00
45403;BME280;47427;51.976;5.326;2023-02-13T20:31:24;103443.84;;;6.04;100.00
45403;BME280;47427;51.976;5.326;2023-02-13T20:34:50;103437.31;;;5.99;100.00
45403;BME280;47427;51.976;5.326;2023-02-13T20:38:15;103441.22;;;5.94;100.00
45403;BME280;47427;51.976;5.326;2023-02-13T20:41:37;103436.75;;;5.83;100.00
45403;BME280;47427;51.976;5.326;2023-02-13T20:45:00;103446.75;;;5.78;100.00
45403;BME280;47427;51.976;5.326;2023-02-13T20:48:25;103447.16;;;5.73;100.00
45403;BME280;47427;51.976;5.326;2023-02-13T20:51:50;103451.78;;;5.67;100.00
45403;BME280;47427;51.976;5.326;2023-02-13T20:55:14;103459.72;;;5.58;100.00
45403;BME280;47427;51.976;5.326;2023-02-13T20:58:39;103467.13;;;5.53;100.00
45403;BME280;47427;51.976;5.326;2023-02-13T21:02:03;103458.47;;;5.44;100.00
45403;BME280;47427;51.976;5.326;2023-02-13T21:05:25;103461.47;;;5.38;100.00
45403;BME280;47427;51.976;5.326;2023-02-13T21:08:51;103461.19;;;5.35;100.00
45403;BME280;47427;51.976;5.326;2023-02-13T21:12:34;103466.13;;;5.32;100.00
45403;BME280;47427;51.976;5.326;2023-02-13T21:16:17;103474.00;;;5.24;100.00
45403;BME280;47427;51.976;5.326;2023-02-13T21:19:40;103474.38;;;5.18;100.00